createdAt,value
2022-08-22T00:02:48.496Z,3.1
2022-08-22T00:02:59.616Z,2.7
2022-08-22T00:03:01.923Z,2.2
2022-08-22T00:04:57.710Z,3
2022-08-22T00:06:58.835Z,3.8
2022-08-22T00:08:59.948Z,3.2
2022-08-22T00:10:02.128Z,2.8
2022-08-22T00:12:03.209Z,2.6
2022-08-22T00:14:04.332Z,3.7
2022-08-22T00:18:09.742Z,3.6
2022-08-22T00:20:10.845Z,4.4
2022-08-22T00:22:11.957Z,3.5
2022-08-22T00:24:13.073Z,3.4
2022-08-22T00:28:15.291Z,2.9
2022-08-22T00:30:16.397Z,3
2022-08-22T00:32:20.708Z,4.1
2022-08-22T00:34:21.829Z,3.9
2022-08-22T00:36:22.934Z,2.8
2022-08-22T00:38:24.058Z,2.7
2022-08-22T00:40:25.173Z,3.7
2022-08-22T00:42:29.332Z,3.9
2022-08-22T00:44:27.389Z,3.4
2022-08-22T00:46:31.695Z,3
2022-08-22T00:48:32.789Z,3.3
2022-08-22T00:52:35.015Z,3.6
2022-08-22T00:54:36.138Z,3.1
2022-08-22T00:58:38.395Z,4.2
2022-08-22T01:00:42.684Z,4.3
2022-08-22T01:02:43.819Z,2.7
2022-08-22T01:04:44.888Z,4
2022-08-22T01:05:47.053Z,3.1
2022-08-22T01:07:48.147Z,3.2
2022-08-22T01:17:57.117Z,3.2
2022-08-22T01:21:59.132Z,3
2022-08-22T01:24:00.246Z,3.3
2022-08-22T01:26:01.363Z,4.4
2022-08-22T01:28:05.664Z,3.5
2022-08-22T01:30:06.835Z,3
2022-08-22T01:32:07.881Z,2.9
2022-08-22T01:34:12.884Z,2.9
2022-08-22T01:36:10.111Z,2.9
2022-08-22T01:38:11.513Z,3.6
2022-08-22T01:40:12.596Z,3.4
2022-08-22T01:42:16.774Z,2.8
2022-08-22T01:44:17.899Z,2.9
2022-08-22T01:46:21.475Z,3
2022-08-22T01:48:20.310Z,4.7
2022-08-22T01:50:21.240Z,2.9
2022-08-22T01:52:22.410Z,2.9
2022-08-22T01:56:27.823Z,2.9
2022-08-22T01:58:28.939Z,2.9
2022-08-22T02:00:35.035Z,3.3
2022-08-22T02:01:32.204Z,3.9
2022-08-22T02:03:33.347Z,3.1
2022-08-22T02:05:34.440Z,3.9
2022-08-22T02:07:35.565Z,3.5
2022-08-22T02:09:39.856Z,3.5
2022-08-22T02:11:41.000Z,3.4
2022-08-22T02:13:42.279Z,3.7
2022-08-22T02:21:46.985Z,3.3
2022-08-22T02:23:51.277Z,4.7
2022-08-22T02:25:52.383Z,5.5
2022-08-22T02:33:56.866Z,3.2
2022-08-22T02:35:57.981Z,3.1
2022-08-22T02:38:02.280Z,4.3
2022-08-22T02:40:03.431Z,3.7
2022-08-22T02:42:04.517Z,4.1
2022-08-22T02:46:07.493Z,3.9
2022-08-22T02:48:07.868Z,3.9
2022-08-22T02:50:12.767Z,4.1
2022-08-22T02:52:13.273Z,3.9
2022-08-22T02:54:14.406Z,4
2022-08-22T02:58:31.774Z,4
2022-08-22T03:04:38.324Z,4.7
2022-08-22T03:06:39.448Z,5.3
2022-08-22T03:18:49.353Z,5.3
2022-08-22T03:20:50.460Z,4.2
2022-08-22T03:26:53.813Z,4.8
2022-08-22T03:28:59.931Z,6.6
2022-08-22T03:30:56.073Z,4.7
2022-08-22T03:33:00.376Z,4.3
2022-08-22T03:35:01.501Z,5.3
2022-08-22T03:37:02.619Z,4.4
2022-08-22T03:39:03.728Z,5.3
2022-08-22T03:43:05.964Z,6.8
2022-08-22T03:45:07.182Z,5
2022-08-22T03:49:12.514Z,7.3
2022-08-22T03:51:13.646Z,5.9
2022-08-22T03:52:15.760Z,5.6
2022-08-22T03:54:16.873Z,5.4
2022-08-22T03:56:18.170Z,4.9
2022-08-22T03:58:27.540Z,6.9
2022-08-22T04:00:23.414Z,5.9
2022-08-22T04:02:42.045Z,4.9
2022-08-22T04:04:25.646Z,6.3
2022-08-22T04:06:26.739Z,6.1
2022-08-22T04:08:27.854Z,5.4
2022-08-22T04:10:28.953Z,5.6
2022-08-22T04:12:30.072Z,7.5
2022-08-22T04:14:34.359Z,6.3
2022-08-22T04:16:35.541Z,6.9
2022-08-22T04:18:36.642Z,6.5
2022-08-22T04:20:39.290Z,6.4
2022-08-22T04:22:40.386Z,6.4
2022-08-22T04:24:41.497Z,5.9
2022-08-22T04:26:42.615Z,7.4
2022-08-22T04:28:46.920Z,8.7
2022-08-22T04:30:48.039Z,6.2
2022-08-22T04:32:49.146Z,6.2
2022-08-22T04:34:50.256Z,5.8
2022-08-22T04:38:52.500Z,7.2
2022-08-22T04:40:53.618Z,6.3
2022-08-22T04:42:57.923Z,5.7
2022-08-22T04:44:59.058Z,9
2022-08-22T04:47:00.150Z,5
2022-08-22T04:48:02.278Z,4.7
2022-08-22T04:50:03.419Z,5.9
2022-08-22T04:52:04.526Z,6.1
2022-08-22T04:56:09.917Z,6.7
2022-08-22T04:58:11.040Z,6.7
2022-08-22T05:04:14.382Z,6.5
2022-08-22T05:06:15.519Z,5.7
2022-08-22T05:08:16.621Z,6.5
2022-08-22T05:10:20.909Z,6.7
2022-08-22T05:12:22.048Z,6.4
2022-08-22T05:14:23.152Z,6.3
2022-08-22T05:16:24.278Z,7.3
2022-08-22T05:18:29.482Z,7.3
2022-08-22T05:20:26.509Z,7.8
2022-08-22T05:22:27.619Z,7.1
2022-08-22T05:24:31.916Z,8.4
2022-08-22T05:26:33.057Z,8.5
2022-08-22T05:28:34.188Z,7.3
2022-08-22T05:30:35.292Z,9.9
2022-08-22T05:32:36.401Z,8.2
2022-08-22T05:34:37.512Z,7
2022-08-22T05:36:38.739Z,7.9
2022-08-22T05:38:42.951Z,7.7
2022-08-22T05:40:44.080Z,8.2
2022-08-22T05:45:48.491Z,8.2
2022-08-22T05:53:56.121Z,7.9
2022-08-22T05:55:57.231Z,9.1
2022-08-22T05:57:58.487Z,9
2022-08-22T05:59:59.473Z,8.7
2022-08-22T06:02:00.722Z,9
2022-08-22T06:04:01.716Z,8.8
2022-08-22T06:06:05.985Z,8.5
2022-08-22T06:08:07.110Z,8
2022-08-22T06:10:08.233Z,10
2022-08-22T06:12:11.656Z,9.4
2022-08-22T06:14:10.475Z,9.3
2022-08-22T06:16:11.576Z,8.6
2022-08-22T06:18:12.897Z,8.3
2022-08-22T06:20:17.034Z,10.7
2022-08-22T06:22:18.641Z,8.4
2022-08-22T06:24:19.253Z,8.9
2022-08-22T06:26:21.374Z,9.9
2022-08-22T06:28:21.482Z,8.8
2022-08-22T06:30:22.583Z,9.3
2022-08-22T06:32:34.160Z,9.7
2022-08-22T06:36:29.123Z,9.5
2022-08-22T06:38:30.392Z,8.9
2022-08-22T06:40:52.277Z,8
2022-08-22T06:49:00.235Z,9.2
2022-08-22T06:51:01.080Z,8.1
2022-08-22T06:55:03.283Z,8.6
2022-08-22T06:57:04.399Z,8
2022-08-22T06:59:05.510Z,8.7
2022-08-22T07:01:11.615Z,10.8
2022-08-22T07:03:10.893Z,8.5
2022-08-22T07:05:11.991Z,8.7
2022-08-22T07:13:16.381Z,8.1
2022-08-22T07:21:23.959Z,7.7
2022-08-22T07:23:25.050Z,7.5
2022-08-22T07:25:26.173Z,7.6
2022-08-22T07:27:27.233Z,6.7
2022-08-22T07:29:32.589Z,7.6
2022-08-22T07:31:32.646Z,6.7
2022-08-22T07:33:33.727Z,9.8
2022-08-22T07:34:35.913Z,7.2
2022-08-22T07:36:36.947Z,6.8
2022-08-22T07:38:38.055Z,8.1
2022-08-22T07:40:39.138Z,7.2
2022-08-22T07:42:43.400Z,8
2022-08-22T07:44:44.494Z,7.1
2022-08-22T07:46:45.565Z,6.4
2022-08-22T07:49:07.678Z,6.8
2022-08-22T07:50:47.706Z,4.9
2022-08-22T07:52:48.792Z,5.8
2022-08-22T07:54:49.870Z,6.3
2022-08-22T08:02:57.315Z,5.4
2022-08-22T08:04:58.388Z,5
2022-08-22T08:06:59.423Z,5.4
2022-08-22T08:09:00.499Z,5.3
2022-08-22T08:15:06.756Z,5
2022-08-22T08:17:07.770Z,4.6
2022-08-22T08:19:08.772Z,3.2
2022-08-22T08:21:09.773Z,3.1
2022-08-22T08:23:10.758Z,3.8
2022-08-22T08:29:16.786Z,3.5
2022-08-22T08:30:18.905Z,4.8
2022-08-22T08:32:19.829Z,4.1
2022-08-22T08:36:21.637Z,2.8
2022-08-22T08:40:26.630Z,4.3
2022-08-22T08:44:28.411Z,4.3
2022-08-22T08:46:29.265Z,6.7
2022-08-22T08:48:30.194Z,2.9
2022-08-22T08:50:31.014Z,3.9
2022-08-22T08:52:35.110Z,3.3
2022-08-22T08:54:35.967Z,2.9
2022-08-22T08:56:36.842Z,2.9
2022-08-22T08:58:37.874Z,2.9
2022-08-22T09:00:38.516Z,4.2
2022-08-22T09:02:42.446Z,3
2022-08-22T09:04:40.267Z,3.1
2022-08-22T09:06:44.448Z,3.2
2022-08-22T09:08:45.183Z,2.1
2022-08-22T09:10:45.971Z,2.3
2022-08-22T09:16:51.902Z,2.5
2022-08-22T09:18:49.368Z,2.4
2022-08-22T09:20:53.432Z,2.4
2022-08-22T09:22:54.267Z,2.1
2022-08-22T09:24:55.137Z,2.1
2022-08-22T09:25:57.184Z,2.2
2022-08-22T09:27:58.177Z,2.4
2022-08-22T09:29:59.793Z,2.5
2022-08-22T09:32:00.299Z,1.8
2022-08-22T09:34:05.304Z,2.5
2022-08-22T09:36:05.373Z,2.2
2022-08-22T09:38:05.530Z,2.8
2022-08-22T09:40:06.411Z,4.2
2022-08-22T09:42:08.083Z,1.9
2022-08-22T09:44:08.081Z,3.1
2022-08-22T09:46:09.275Z,2.4
2022-08-22T09:48:13.393Z,3.4
2022-08-22T09:50:14.282Z,2.6
2022-08-22T09:52:32.002Z,2.4
2022-08-22T09:54:16.023Z,2
2022-08-22T09:56:16.920Z,4
2022-08-22T09:58:17.801Z,2.6
2022-08-22T10:06:24.573Z,3
2022-08-22T10:08:26.234Z,2.7
2022-08-22T10:10:27.832Z,1.9
2022-08-22T10:12:31.528Z,2.1
2022-08-22T10:14:29.525Z,1.6
2022-08-22T10:16:33.595Z,2.2
2022-08-22T10:18:34.466Z,2.8
2022-08-22T10:20:35.304Z,4.3
2022-08-22T10:23:03.197Z,2.7
2022-08-22T10:25:03.794Z,2.1
2022-08-22T10:29:08.728Z,2.4
2022-08-22T10:33:12.297Z,2.2
2022-08-22T10:37:12.147Z,4.7
2022-08-22T10:39:12.973Z,2.1
2022-08-22T10:41:13.784Z,2.1
2022-08-22T10:43:17.842Z,2.5
2022-08-22T10:47:19.503Z,2.2
2022-08-22T10:49:20.323Z,2.8
2022-08-22T10:53:26.468Z,2.4
2022-08-22T10:55:24.601Z,2.4
2022-08-22T11:01:38.075Z,2.1
2022-08-22T11:07:31.080Z,2.4
2022-08-22T11:09:36.979Z,2.3
2022-08-22T11:11:36.024Z,2.8
2022-08-22T11:15:37.711Z,2.6
2022-08-22T11:16:41.921Z,2.7
2022-08-22T11:18:40.621Z,2.2
2022-08-22T11:20:41.461Z,2.7
2022-08-22T11:22:42.315Z,2.8
2022-08-22T11:24:55.348Z,2.4
2022-08-22T11:26:47.823Z,2.5
2022-08-22T11:28:48.150Z,3.7
2022-08-22T11:30:49.740Z,2.6
2022-08-22T11:32:51.256Z,3.3
2022-08-22T11:34:50.745Z,2.7
2022-08-22T11:36:51.616Z,2.7
2022-08-22T11:38:55.708Z,3.1
2022-08-22T11:40:56.564Z,2.8
2022-08-22T11:42:57.459Z,2.2
2022-08-22T11:44:58.302Z,2.2
2022-08-22T11:49:00.026Z,1.9
2022-08-22T11:53:07.706Z,2.6
2022-08-22T11:59:07.477Z,4.5
2022-08-22T12:01:11.817Z,2.6
2022-08-22T12:03:09.190Z,4.4
2022-08-22T12:05:10.072Z,1.8
2022-08-22T12:07:14.157Z,2.4
2022-08-22T12:09:15.010Z,1.8
2022-08-22T12:11:15.879Z,2.1
2022-08-22T12:12:18.143Z,2.4
2022-08-22T12:14:18.813Z,2.9
2022-08-22T12:16:19.686Z,2.6
2022-08-22T12:18:21.568Z,2.5
2022-08-22T12:20:24.691Z,1.5
2022-08-22T12:26:27.323Z,2.2
2022-08-22T12:28:28.227Z,1.8
2022-08-22T12:30:29.105Z,2.7
2022-08-22T12:32:30.034Z,2.1
2022-08-22T12:36:35.005Z,1.8
2022-08-22T12:38:37.979Z,2.1
2022-08-22T12:40:36.888Z,1.5
2022-08-22T12:48:43.568Z,1.8
2022-08-22T12:52:45.338Z,2.2
2022-08-22T12:54:46.261Z,13.5
2022-08-22T12:56:47.426Z,1.3
2022-08-22T12:58:51.274Z,1.8
2022-08-22T13:00:49.035Z,1.8
2022-08-22T13:06:54.859Z,2.1
2022-08-22T13:07:59.182Z,3
2022-08-22T13:09:57.805Z,2
2022-08-22T13:13:59.601Z,3
2022-08-22T13:18:25.172Z,2
2022-08-22T13:20:05.544Z,4
2022-08-22T13:24:10.322Z,2.3
2022-08-22T13:26:08.221Z,3.8
2022-08-22T13:28:09.169Z,2.6
2022-08-22T13:30:13.213Z,1.8
2022-08-22T13:34:17.396Z,2.1
2022-08-22T13:36:15.870Z,1.9
2022-08-22T13:38:16.769Z,1.7
2022-08-22T13:40:17.719Z,2.3
2022-08-22T13:48:28.356Z,3
2022-08-22T13:50:25.320Z,2.2
2022-08-22T13:52:29.731Z,2.4
2022-08-22T13:58:32.116Z,2.5
2022-08-22T14:00:33.021Z,2
2022-08-22T14:02:34.338Z,2.4
2022-08-22T14:04:55.953Z,2.2
2022-08-22T14:08:57.785Z,5.4
2022-08-22T14:17:04.591Z,2.2
2022-08-22T14:19:06.201Z,1.9
2022-08-22T14:21:06.414Z,2.3
2022-08-22T14:23:07.339Z,2.3
2022-08-22T14:25:11.466Z,2.2
2022-08-22T14:27:12.376Z,2.5
2022-08-22T14:29:13.294Z,2.4
2022-08-22T14:31:14.267Z,2.6
2022-08-22T14:33:15.129Z,2.5
2022-08-22T14:35:21.676Z,2.8
2022-08-22T14:37:16.943Z,2.7
2022-08-22T14:39:21.535Z,2
2022-08-22T14:41:22.429Z,3.5
2022-08-22T14:43:23.351Z,3.2
2022-08-22T14:45:24.269Z,2.4
2022-08-22T14:47:54.497Z,2.2
2022-08-22T14:49:26.087Z,2.2
2022-08-22T14:51:26.984Z,2.8
2022-08-22T14:53:31.134Z,8.1
2022-08-22T14:55:32.042Z,2.6
2022-08-22T14:57:32.949Z,2.3
2022-08-22T14:58:35.021Z,2.7
2022-08-22T15:00:35.926Z,1.8
2022-08-22T15:02:36.828Z,2.2
2022-08-22T15:04:37.722Z,2
2022-08-22T15:06:47.734Z,2.3
2022-08-22T15:08:46.251Z,7.1
2022-08-22T15:10:43.687Z,3
2022-08-22T15:12:44.616Z,1.8
2022-08-22T15:14:45.523Z,2.7
2022-08-22T15:16:46.612Z,2.6
2022-08-22T15:18:51.832Z,1.9
2022-08-22T15:20:52.273Z,2.1
2022-08-22T15:22:52.402Z,3.2
2022-08-22T15:24:53.312Z,2.1
2022-08-22T15:26:55.470Z,5.2
2022-08-22T15:28:55.121Z,2.9
2022-08-22T15:30:56.050Z,2.8
2022-08-22T15:32:57.006Z,3
2022-08-22T15:35:01.089Z,2.4
2022-08-22T15:37:05.558Z,2.5
2022-08-22T15:39:02.933Z,3.1
2022-08-22T15:41:03.834Z,2
2022-08-22T15:43:04.758Z,2
2022-08-22T15:45:05.662Z,2.4
2022-08-22T15:47:11.753Z,2.9
2022-08-22T15:49:11.169Z,2.8
2022-08-22T15:51:11.589Z,1.9
2022-08-22T15:53:12.502Z,2.5
2022-08-22T15:54:24.510Z,2
2022-08-22T15:56:15.507Z,3.4
2022-08-22T15:58:17.861Z,4.8
2022-08-22T16:00:18.720Z,3.1
2022-08-22T16:02:22.837Z,2
2022-08-22T16:04:23.740Z,2
2022-08-22T16:06:24.626Z,2.1
2022-08-22T16:08:25.523Z,2.7
2022-08-22T16:10:26.402Z,3.6
2022-08-22T16:12:27.304Z,1.8
2022-08-22T16:14:29.647Z,1.7
2022-08-22T16:16:32.316Z,1.6
2022-08-22T16:18:33.205Z,2.3
2022-08-22T16:20:34.112Z,1.9
2022-08-22T16:22:35.000Z,5.5
2022-08-22T16:24:36.863Z,2.5
2022-08-22T16:26:36.829Z,5.1
2022-08-22T16:28:57.361Z,2.2
2022-08-22T16:30:41.815Z,2.5
2022-08-22T16:32:42.706Z,2.8
2022-08-22T16:34:43.617Z,2
2022-08-22T16:36:44.528Z,2.9
2022-08-22T16:38:45.424Z,1.7
2022-08-22T16:42:47.267Z,3
2022-08-22T16:44:51.415Z,2.7
2022-08-22T16:46:52.326Z,1.3
2022-08-22T16:51:56.241Z,1.7
2022-08-22T16:53:57.142Z,2.4
2022-08-22T16:55:58.068Z,2.3
2022-08-22T16:58:06.427Z,2.7
2022-08-22T17:00:03.143Z,2.9
2022-08-22T17:02:04.067Z,2.7
2022-08-22T17:04:05.093Z,2.1
2022-08-22T17:08:06.868Z,2.5
2022-08-22T17:10:11.599Z,4.2
2022-08-22T17:12:11.983Z,2.1
2022-08-22T17:20:15.719Z,3.4
2022-08-22T17:24:34.095Z,3.5
2022-08-22T17:26:21.757Z,2.3
2022-08-22T17:28:22.689Z,3
2022-08-22T17:30:23.659Z,2.6
2022-08-22T17:32:24.589Z,2.3
2022-08-22T17:34:25.555Z,4
2022-08-22T17:36:27.496Z,2.5
2022-08-22T17:38:27.436Z,2.3
2022-08-22T17:40:31.721Z,2.3
2022-08-22T17:42:32.579Z,2.5
2022-08-22T17:44:33.557Z,3.5
2022-08-22T17:47:01.516Z,3.1
2022-08-22T17:49:02.318Z,2.6
2022-08-22T17:51:03.225Z,2.7
2022-08-22T17:53:07.401Z,2.2
2022-08-22T17:55:08.398Z,15
2022-08-22T17:57:09.329Z,3.4
2022-08-22T17:59:10.292Z,3.2
2022-08-22T18:01:11.325Z,2.7
2022-08-22T18:03:12.216Z,2.4
2022-08-22T18:05:13.174Z,2
2022-08-22T18:07:17.368Z,2.7
2022-08-22T18:09:18.349Z,2.5
2022-08-22T18:11:19.289Z,2.5
2022-08-22T18:13:20.245Z,3.3
2022-08-22T18:15:21.225Z,1.9
2022-08-22T18:17:22.199Z,2.1
2022-08-22T18:19:23.177Z,1.6
2022-08-22T18:23:36.249Z,2.7
2022-08-22T18:25:29.327Z,2.4
2022-08-22T18:27:35.297Z,2.7
2022-08-22T18:29:31.278Z,4.9
2022-08-22T18:31:36.398Z,2.6
2022-08-22T18:33:33.206Z,2.4
2022-08-22T18:35:37.405Z,2.8
2022-08-22T18:37:38.368Z,3
2022-08-22T18:39:42.468Z,1.9
2022-08-22T18:40:49.722Z,2.9
2022-08-22T18:42:42.454Z,3
2022-08-22T18:44:43.435Z,2.9
2022-08-22T18:46:44.393Z,2.9
2022-08-22T18:49:12.044Z,2.1
2022-08-22T18:50:49.571Z,4
2022-08-22T18:52:50.756Z,2.5
2022-08-22T18:54:51.509Z,2.7
2022-08-22T18:56:52.510Z,2.3
2022-08-22T18:58:58.883Z,2.4
2022-08-22T19:00:54.513Z,2.2
2022-08-22T19:02:58.714Z,3.1
2022-08-22T19:04:59.665Z,2.4
2022-08-22T19:07:00.672Z,2.8
2022-08-22T19:11:02.668Z,2.6
2022-08-22T19:13:03.645Z,5
2022-08-22T19:15:04.647Z,2.5
2022-08-22T19:17:11.875Z,2.7
2022-08-22T19:19:17.449Z,2.4
2022-08-22T19:21:10.837Z,4
2022-08-22T19:23:11.846Z,3.5
2022-08-22T19:25:12.842Z,2.9
2022-08-22T19:27:13.854Z,2.5
2022-08-22T19:29:14.861Z,4.5
2022-08-22T19:31:19.071Z,2.8
2022-08-22T19:33:20.079Z,3
2022-08-22T19:35:21.068Z,3.3
2022-08-22T19:38:24.170Z,3
2022-08-22T19:40:25.222Z,3.1
2022-08-22T19:42:26.201Z,2.8
2022-08-22T19:44:30.424Z,2.8
2022-08-22T19:46:31.413Z,3.7
2022-08-22T19:48:32.427Z,3.1
2022-08-22T19:50:33.437Z,3.9
2022-08-22T19:54:35.450Z,3.2
2022-08-22T19:56:36.468Z,3.9
2022-08-22T19:58:40.692Z,3.7
2022-08-22T20:00:41.774Z,3.6
2022-08-22T20:02:42.773Z,3.4
2022-08-22T20:04:43.754Z,3.9
2022-08-22T20:06:45.096Z,3.2
2022-08-22T20:08:45.800Z,3.3
2022-08-22T20:10:46.833Z,3.7
2022-08-22T20:12:51.051Z,3.8
2022-08-22T20:14:52.094Z,2.9
2022-08-22T20:16:53.105Z,3.8
2022-08-22T20:19:03.545Z,4.2
2022-08-22T20:20:55.172Z,3.2
2022-08-22T20:22:56.622Z,3.7
2022-08-22T20:27:13.875Z,4.1
2022-08-22T20:29:02.521Z,4.9
2022-08-22T20:31:03.552Z,3.4
2022-08-22T20:38:06.631Z,6.1
2022-08-22T20:40:07.253Z,4.1
2022-08-22T20:42:08.241Z,3.7
2022-08-22T20:44:09.278Z,4.3
2022-08-22T20:46:12.556Z,4
2022-08-22T20:48:11.349Z,3.9
2022-08-22T20:50:12.397Z,4.5
2022-08-22T20:52:13.429Z,3.8
2022-08-22T20:54:17.689Z,4.4
2022-08-22T20:56:18.711Z,6.1
2022-08-22T20:58:19.750Z,3.6
2022-08-22T21:00:20.783Z,3.5
2022-08-22T21:04:22.879Z,4.5
2022-08-22T21:06:23.984Z,4.5
2022-08-22T21:08:28.189Z,4.4
2022-08-22T21:10:29.212Z,4.3
2022-08-22T21:12:30.267Z,5.4
2022-08-22T21:16:32.365Z,5.9
2022-08-22T21:18:33.396Z,5.6
2022-08-22T21:20:34.450Z,4.2
2022-08-22T21:22:38.698Z,4.2
2022-08-22T21:24:39.783Z,3.7
2022-08-22T21:26:40.798Z,4.2
2022-08-22T21:29:00.775Z,6.2
2022-08-22T21:31:01.826Z,4.6
2022-08-22T21:37:08.226Z,4.6
2022-08-22T21:39:09.256Z,4.6
2022-08-22T21:41:10.318Z,4.4
2022-08-22T21:45:12.431Z,5.3
2022-08-22T21:47:15.044Z,4.9
2022-08-22T21:49:19.292Z,6.2
2022-08-22T21:51:20.349Z,5.1
2022-08-22T21:53:21.421Z,4.4
2022-08-22T21:55:22.475Z,5.7
2022-08-22T21:57:23.538Z,5.3
2022-08-22T21:59:24.871Z,4.5
2022-08-22T22:01:27.228Z,4.5
2022-08-22T22:03:29.949Z,4.8
2022-08-22T22:05:31.031Z,3.8
2022-08-22T22:09:33.166Z,5.2
2022-08-22T22:11:34.268Z,4.1
2022-08-22T22:13:35.350Z,4.7
2022-08-22T22:17:40.704Z,4.9
2022-08-22T22:19:41.751Z,5
2022-08-22T22:22:46.145Z,5.8
2022-08-22T22:24:46.055Z,5.7
2022-08-22T22:26:47.124Z,5.6
2022-08-22T22:28:48.228Z,6.9
2022-08-22T22:30:52.466Z,5.4
2022-08-22T22:32:53.757Z,6.3
2022-08-22T22:34:54.643Z,5.6
2022-08-22T22:36:55.739Z,5.6
2022-08-22T22:38:56.800Z,5.3
2022-08-22T22:40:57.891Z,5.5
2022-08-22T22:42:58.964Z,5.4
2022-08-22T22:45:03.326Z,6.5
2022-08-22T22:49:05.401Z,5.2
2022-08-22T22:55:08.685Z,5.3
2022-08-22T22:57:12.819Z,5.3
2022-08-22T22:59:14.742Z,5.9
2022-08-22T23:07:18.367Z,4.6
2022-08-22T23:09:19.470Z,5.2
2022-08-22T23:11:20.602Z,5.5
2022-08-22T23:13:24.855Z,5.9
2022-08-22T23:15:25.955Z,5.6
2022-08-22T23:18:30.486Z,5.2
2022-08-22T23:20:30.313Z,5.7
2022-08-22T23:22:31.347Z,5.2
2022-08-22T23:26:36.711Z,6.9
2022-08-22T23:28:37.814Z,6.4
2022-08-22T23:30:38.898Z,5
2022-08-22T23:32:39.985Z,5.9
2022-08-22T23:34:41.089Z,6.5
2022-08-22T23:36:42.159Z,5.8
2022-08-22T23:38:43.271Z,5.6
2022-08-22T23:40:47.530Z,5.6
2022-08-22T23:42:48.675Z,5.8
2022-08-22T23:44:49.763Z,7
2022-08-22T23:46:50.854Z,6.9
2022-08-22T23:48:51.954Z,5.3
2022-08-22T23:54:58.407Z,6.9
2022-08-22T23:59:00.701Z,6.1
